Time;durP1;ratioP1;P1;durP2;ratioP2;P2;SDS_P1;SDS_P2;PMS_P1;PMS_P2;Temp;Humidity;BMP_temperature;BMP_pressure;BME280_temperature;BME280_humidity;BME280_pressure;Samples;Min_cycle;Max_cycle;Signal;HPM_P1;HPM_P2
2023/12/27 00:01:18;;;;;;;0.40;0.40;;;1.80;99.90;;;;;;5048712;28;20040;-71
2023/12/27 00:03:44;;;;;;;0.50;0.50;;;1.80;99.90;;;;;;5048146;28;20509;-71
2023/12/27 00:06:09;;;;;;;0.57;0.57;;;1.80;99.90;;;;;;5055624;28;20442;-71
2023/12/27 00:08:35;;;;;;;0.50;0.50;;;1.70;99.90;;;;;;5050314;28;20099;-71
2023/12/27 00:11:02;;;;;;;0.55;0.55;;;1.70;99.90;;;;;;5053439;28;20387;-71
2023/12/27 00:13:28;;;;;;;0.50;0.50;;;1.70;99.90;;;;;;5048991;28;20049;-71
2023/12/27 00:15:53;;;;;;;0.75;0.73;;;1.70;99.90;;;;;;5054419;28;20500;-71
2023/12/27 00:18:19;;;;;;;0.50;0.50;;;1.70;99.90;;;;;;5047255;28;20049;-71
2023/12/27 00:20:47;;;;;;;0.98;0.95;;;1.60;99.90;;;;;;5054535;28;20494;-71
2023/12/27 00:23:12;;;;;;;1.55;1.08;;;1.60;99.90;;;;;;5062050;28;20064;-71
2023/12/27 00:25:38;;;;;;;0.60;0.60;;;1.60;99.90;;;;;;5052761;28;20417;-71
2023/12/27 00:28:04;;;;;;;0.50;0.50;;;1.60;99.90;;;;;;5059780;28;20056;-71
2023/12/27 00:30:30;;;;;;;0.50;0.50;;;1.60;99.90;;;;;;5056911;28;20036;-71
2023/12/27 00:32:56;;;;;;;2.17;0.90;;;1.60;99.90;;;;;;5064628;28;20045;-71
2023/12/27 00:35:22;;;;;;;0.50;0.50;;;1.60;99.90;;;;;;5047391;28;20066;-71
2023/12/27 00:37:47;;;;;;;0.50;0.50;;;1.60;99.90;;;;;;5049341;28;20101;-71
2023/12/27 00:40:13;;;;;;;0.35;0.35;;;1.60;99.90;;;;;;5059884;28;20143;-71
2023/12/27 00:42:39;;;;;;;0.77;0.57;;;1.60;99.90;;;;;;5055525;28;20041;-71
2023/12/27 00:45:05;;;;;;;0.60;0.60;;;1.60;99.90;;;;;;5056196;28;20547;-71
2023/12/27 00:47:30;;;;;;;0.50;0.50;;;1.50;99.90;;;;;;5052321;28;20116;-70
2023/12/27 00:49:57;;;;;;;0.70;0.70;;;1.60;99.90;;;;;;5050308;28;20097;-71
2023/12/27 00:52:22;;;;;;;0.50;0.50;;;1.50;99.90;;;;;;5048382;28;20049;-71
2023/12/27 00:54:48;;;;;;;0.70;0.70;;;1.60;99.90;;;;;;5055186;28;20095;-71
2023/12/27 00:57:13;;;;;;;0.70;0.70;;;1.50;99.90;;;;;;5053237;28;20048;-71
2023/12/27 00:59:39;;;;;;;0.60;0.60;;;1.50;99.90;;;;;;5056445;28;20044;-71
2023/12/27 01:02:06;;;;;;;0.60;0.60;;;1.50;99.90;;;;;;5057417;28;20543;-71
2023/12/27 01:04:33;;;;;;;0.57;0.57;;;1.50;99.90;;;;;;5046881;28;20052;-71
2023/12/27 01:06:59;;;;;;;0.40;0.40;;;1.40;99.90;;;;;;5058531;28;20125;-72
2023/12/27 01:09:25;;;;;;;0.45;0.45;;;1.40;99.90;;;;;;5049879;28;20486;-71
2023/12/27 01:11:51;;;;;;;0.70;0.70;;;1.30;99.90;;;;;;5053935;28;20087;-71
2023/12/27 01:14:19;;;;;;;0.40;0.40;;;1.30;99.90;;;;;;5052420;28;20072;-71
2023/12/27 01:16:44;;;;;;;0.50;0.50;;;1.30;99.90;;;;;;5061934;28;20494;-71
2023/12/27 01:19:11;;;;;;;0.45;0.45;;;1.30;99.90;;;;;;5063315;28;20043;-71
2023/12/27 01:21:36;;;;;;;0.50;0.50;;;1.20;99.90;;;;;;5061374;28;20036;-71
2023/12/27 01:24:02;;;;;;;0.60;0.60;;;1.20;99.90;;;;;;5055340;28;20465;-71
2023/12/27 01:26:28;;;;;;;0.45;0.45;;;1.20;99.90;;;;;;5059258;28;20064;-72
2023/12/27 01:28:53;;;;;;;0.50;0.50;;;1.20;99.90;;;;;;5054646;28;20638;-71
2023/12/27 01:31:19;;;;;;;1.48;1.27;;;1.10;99.90;;;;;;5048959;28;20041;-71
2023/12/27 01:33:45;;;;;;;2.50;0.95;;;1.10;99.90;;;;;;5045893;28;20135;-71
2023/12/27 01:36:11;;;;;;;0.70;0.70;;;1.10;99.90;;;;;;5053974;28;20053;-71
2023/12/27 01:38:36;;;;;;;0.45;0.45;;;1.10;99.90;;;;;;5061506;28;20478;-71
2023/12/27 01:41:02;;;;;;;1.42;1.33;;;1.00;99.90;;;;;;5063616;28;20048;-71
2023/12/27 01:43:28;;;;;;;0.60;0.60;;;1.00;99.90;;;;;;5055781;28;20087;-71
2023/12/27 01:45:54;;;;;;;0.40;0.40;;;1.00;99.90;;;;;;5053734;28;20579;-71
2023/12/27 01:48:20;;;;;;;0.60;0.60;;;1.00;99.90;;;;;;5057866;28;20044;-71
2023/12/27 01:50:50;;;;;;;0.40;0.40;;;0.90;99.90;;;;;;5059313;28;20106;-71
2023/12/27 01:53:19;;;;;;;0.50;0.50;;;0.90;99.90;;;;;;5061787;28;20053;-71
2023/12/27 01:55:47;;;;;;;0.57;0.57;;;0.90;99.90;;;;;;5065962;28;20122;-71
2023/12/27 01:58:14;;;;;;;0.50;0.50;;;0.90;99.90;;;;;;5068725;28;20049;-71
2023/12/27 02:00:45;;;;;;;0.45;0.45;;;0.90;99.90;;;;;;5069357;28;20044;-71
2023/12/27 02:03:11;;;;;;;0.77;0.77;;;0.90;99.90;;;;;;5062970;28;20516;-71
2023/12/27 02:05:38;;;;;;;0.47;0.47;;;0.80;99.90;;;;;;5055742;28;20049;-71
2023/12/27 02:08:05;;;;;;;0.70;0.70;;;0.80;99.90;;;;;;5061099;28;20048;-71
2023/12/27 02:10:31;;;;;;;0.60;0.60;;;0.80;99.90;;;;;;5054816;28;20041;-71
2023/12/27 02:13:02;;;;;;;0.63;0.63;;;0.70;99.90;;;;;;5057396;28;20048;-71
2023/12/27 02:15:28;;;;;;;0.50;0.50;;;0.70;99.90;;;;;;5058594;28;20084;-71
2023/12/27 02:17:55;;;;;;;0.60;0.60;;;0.70;99.90;;;;;;5036261;28;20145;-71
2023/12/27 02:20:21;;;;;;;0.47;0.47;;;0.70;99.90;;;;;;5035174;28;20049;-71
2023/12/27 02:22:49;;;;;;;0.50;0.50;;;0.60;99.90;;;;;;5047072;28;20132;-71
2023/12/27 02:25:16;;;;;;;0.30;0.30;;;0.60;99.90;;;;;;5058294;28;20044;-71
2023/12/27 02:27:42;;;;;;;0.55;0.55;;;0.60;99.90;;;;;;5053756;28;20107;-71
2023/12/27 02:30:17;;;;;;;0.82;0.82;;;0.60;99.90;;;;;;5058720;28;20429;-71
2023/12/27 02:32:43;;;;;;;0.60;0.60;;;0.60;99.90;;;;;;5054702;28;20486;-71
2023/12/27 02:35:09;;;;;;;0.63;0.63;;;0.50;99.90;;;;;;5050369;28;20214;-71
2023/12/27 02:37:34;;;;;;;0.40;0.40;;;0.60;99.90;;;;;;5056321;28;20044;-71
2023/12/27 02:40:03;;;;;;;0.90;0.90;;;0.50;99.90;;;;;;5054637;28;20129;-71
2023/12/27 02:42:28;;;;;;;0.63;0.63;;;0.50;99.90;;;;;;5061842;28;20040;-71
2023/12/27 02:44:54;;;;;;;0.50;0.50;;;0.50;99.90;;;;;;5051651;28;20378;-71
2023/12/27 02:47:20;;;;;;;0.43;0.43;;;0.40;99.90;;;;;;5060778;28;20576;-71
2023/12/27 02:49:45;;;;;;;0.40;0.40;;;0.40;99.90;;;;;;5054688;28;20052;-71
2023/12/27 02:52:11;;;;;;;0.50;0.50;;;0.40;99.90;;;;;;5056075;28;20033;-71
2023/12/27 02:54:36;;;;;;;1.27;0.88;;;0.40;99.90;;;;;;5054497;28;20119;-71
2023/12/27 02:57:02;;;;;;;0.75;0.75;;;0.40;99.90;;;;;;5055672;28;20100;-71
2023/12/27 02:59:28;;;;;;;0.55;0.55;;;0.40;99.90;;;;;;5050711;28;20044;-71
2023/12/27 03:01:53;;;;;;;0.70;0.70;;;0.40;99.90;;;;;;5051871;28;20079;-71
2023/12/27 03:04:19;;;;;;;0.40;0.40;;;0.40;99.90;;;;;;5054310;28;20094;-71
2023/12/27 03:06:44;;;;;;;0.40;0.40;;;0.40;99.90;;;;;;5013196;28;1050785;-72
2023/12/27 03:09:10;;;;;;;0.50;0.50;;;0.40;99.90;;;;;;5062037;28;20057;-72
2023/12/27 03:11:36;;;;;;;0.63;0.63;;;0.40;99.90;;;;;;5057241;28;20041;-71
2023/12/27 03:14:02;;;;;;;0.50;0.50;;;0.40;99.90;;;;;;5051276;28;20277;-71
2023/12/27 03:16:28;;;;;;;0.50;0.50;;;0.40;99.90;;;;;;5051837;28;20053;-71
2023/12/27 03:18:54;;;;;;;1.35;1.25;;;0.40;99.90;;;;;;5061606;28;20045;-71
2023/12/27 03:21:20;;;;;;;0.52;0.52;;;0.40;99.90;;;;;;5055809;28;20128;-71
2023/12/27 03:23:46;;;;;;;0.75;0.75;;;0.40;99.90;;;;;;5059632;28;20128;-71
2023/12/27 03:26:12;;;;;;;0.70;0.70;;;0.40;99.90;;;;;;5059623;28;20090;-71
2023/12/27 03:28:38;;;;;;;0.60;0.60;;;0.40;99.90;;;;;;5067965;28;20048;-71
2023/12/27 03:31:03;;;;;;;0.75;0.75;;;0.40;99.90;;;;;;5064797;28;20060;-71
2023/12/27 03:33:29;;;;;;;0.50;0.50;;;0.50;99.90;;;;;;5061116;28;20037;-71
2023/12/27 03:35:55;;;;;;;0.50;0.50;;;0.50;99.90;;;;;;5065863;28;20044;-72
2023/12/27 03:38:20;;;;;;;0.70;0.70;;;0.50;99.90;;;;;;5053534;28;20064;-72
2023/12/27 03:40:46;;;;;;;0.43;0.43;;;0.50;99.90;;;;;;5050989;28;20102;-71
2023/12/27 03:43:12;;;;;;;0.50;0.50;;;0.50;99.90;;;;;;5052433;28;20048;-71
2023/12/27 03:45:38;;;;;;;0.40;0.40;;;0.50;99.90;;;;;;5049839;28;20091;-71
2023/12/27 03:48:04;;;;;;;0.50;0.50;;;0.50;99.90;;;;;;5061282;28;20450;-71
2023/12/27 03:50:30;;;;;;;0.60;0.60;;;0.50;99.90;;;;;;5051845;28;20032;-71
2023/12/27 03:52:56;;;;;;;0.70;0.70;;;0.50;99.90;;;;;;5058313;28;20048;-71
2023/12/27 03:55:25;;;;;;;1.25;1.05;;;0.40;99.90;;;;;;5054186;28;20102;-71
2023/12/27 03:57:51;;;;;;;0.43;0.43;;;0.50;99.90;;;;;;5055528;28;20707;-71
2023/12/27 04:00:17;;;;;;;0.50;0.50;;;0.40;99.90;;;;;;5059659;28;20051;-71
2023/12/27 04:02:43;;;;;;;0.52;0.52;;;0.40;99.90;;;;;;5047550;28;20140;-71
2023/12/27 04:05:09;;;;;;;0.70;0.70;;;0.40;99.90;;;;;;5053404;28;20056;-71
2023/12/27 04:07:34;;;;;;;3.33;0.57;;;0.40;99.90;;;;;;5050276;28;20058;-71
2023/12/27 04:10:00;;;;;;;0.50;0.50;;;0.40;99.90;;;;;;5055475;28;20110;-71
2023/12/27 04:12:26;;;;;;;0.57;0.57;;;0.40;99.90;;;;;;5049396;28;20098;-71
2023/12/27 04:14:51;;;;;;;0.45;0.45;;;0.40;99.90;;;;;;5054017;28;20063;-71
2023/12/27 04:17:17;;;;;;;0.50;0.50;;;0.40;99.90;;;;;;5054183;28;20087;-71
2023/12/27 04:19:43;;;;;;;0.50;0.50;;;0.30;99.90;;;;;;5048903;28;20478;-71
2023/12/27 04:22:08;;;;;;;0.60;0.60;;;0.30;99.90;;;;;;5051678;28;20516;-71
2023/12/27 04:24:35;;;;;;;0.50;0.50;;;0.30;99.90;;;;;;5056818;28;20101;-71
2023/12/27 04:27:01;;;;;;;0.60;0.60;;;0.30;99.90;;;;;;5051627;28;20049;-71
2023/12/27 04:29:27;;;;;;;0.60;0.60;;;0.30;99.90;;;;;;5050787;28;20063;-71
2023/12/27 04:31:52;;;;;;;0.65;0.65;;;0.30;99.90;;;;;;5053060;28;20057;-71
2023/12/27 04:34:18;;;;;;;0.50;0.50;;;0.20;99.90;;;;;;5051227;28;20048;-70
2023/12/27 04:36:43;;;;;;;0.60;0.52;;;0.30;99.90;;;;;;5052844;28;20097;-70
2023/12/27 04:39:09;;;;;;;0.90;0.82;;;0.30;99.90;;;;;;5056981;28;20086;-71
2023/12/27 04:41:35;;;;;;;2.30;0.75;;;0.30;99.90;;;;;;5052317;28;20071;-71
2023/12/27 04:44:00;;;;;;;0.50;0.50;;;0.30;99.90;;;;;;5036169;28;20051;-71
2023/12/27 04:46:26;;;;;;;0.63;0.63;;;0.30;99.90;;;;;;5057827;28;20059;-71
2023/12/27 04:48:51;;;;;;;0.68;0.68;;;0.30;99.90;;;;;;5048575;28;20040;-71
2023/12/27 04:51:18;;;;;;;0.50;0.50;;;0.30;99.90;;;;;;5028853;28;20137;-71
2023/12/27 04:53:44;;;;;;;0.43;0.43;;;0.30;99.90;;;;;;5058285;28;20052;-71
2023/12/27 04:56:10;;;;;;;0.50;0.50;;;0.30;99.90;;;;;;5059470;28;20079;-71
2023/12/27 04:58:36;;;;;;;1.55;0.70;;;0.30;99.90;;;;;;5047401;28;20055;-71
2023/12/27 05:01:09;;;;;;;0.60;0.60;;;0.30;99.90;;;;;;5050964;28;20071;-71
2023/12/27 05:03:37;;;;;;;0.50;0.50;;;0.20;99.90;;;;;;5045225;28;20045;-73
2023/12/27 05:06:06;;;;;;;0.50;0.50;;;0.30;99.90;;;;;;5053197;28;20240;-71
2023/12/27 05:08:31;;;;;;;;;;;0.30;99.90;;;;;;5048274;28;20134;-71
2023/12/27 05:10:57;;;;;;;0.60;0.60;;;0.30;99.90;;;;;;5050160;28;19979;-71
2023/12/27 05:13:23;;;;;;;0.50;0.50;;;0.30;99.90;;;;;;5050344;28;20041;-71
2023/12/27 05:15:48;;;;;;;0.50;0.50;;;0.30;99.90;;;;;;5056396;28;20083;-71
2023/12/27 05:18:14;;;;;;;0.40;0.40;;;0.30;99.90;;;;;;5048924;28;20045;-71
2023/12/27 05:20:39;;;;;;;0.50;0.50;;;0.40;99.90;;;;;;5053225;28;20408;-71
2023/12/27 05:23:05;;;;;;;0.65;0.65;;;0.40;99.90;;;;;;5053164;28;20063;-71
2023/12/27 05:25:30;;;;;;;0.40;0.40;;;0.40;99.90;;;;;;5058791;28;20056;-71
2023/12/27 05:27:56;;;;;;;0.50;0.50;;;0.40;99.90;;;;;;5054189;28;20051;-71
2023/12/27 05:30:21;;;;;;;0.55;0.55;;;0.40;99.90;;;;;;5055847;28;20051;-71
2023/12/27 05:32:47;;;;;;;0.55;0.55;;;0.40;99.90;;;;;;5057143;28;20059;-71
2023/12/27 05:35:13;;;;;;;0.55;0.55;;;0.40;99.90;;;;;;5056812;28;20062;-71
2023/12/27 05:37:38;;;;;;;0.47;0.47;;;0.40;99.90;;;;;;5053758;28;20056;-71
2023/12/27 05:40:05;;;;;;;0.43;0.43;;;0.40;99.90;;;;;;5050586;28;20155;-71
2023/12/27 05:42:30;;;;;;;0.40;0.40;;;0.50;99.90;;;;;;5049218;28;20297;-71
2023/12/27 05:44:56;;;;;;;0.60;0.60;;;0.50;99.90;;;;;;5056654;28;20534;-71
2023/12/27 05:47:22;;;;;;;0.50;0.50;;;0.50;99.90;;;;;;5062589;28;20055;-71
2023/12/27 05:49:48;;;;;;;0.60;0.60;;;0.50;99.90;;;;;;5056720;28;20055;-71
2023/12/27 05:52:13;;;;;;;1.08;0.70;;;0.60;99.90;;;;;;5049684;28;20048;-71
2023/12/27 05:54:39;;;;;;;0.68;0.68;;;0.70;99.90;;;;;;5045914;28;20048;-72
2023/12/27 05:57:05;;;;;;;0.47;0.47;;;0.70;99.90;;;;;;5061324;28;20119;-71
2023/12/27 05:59:31;;;;;;;0.60;0.60;;;0.80;99.90;;;;;;5057307;28;20056;-71
2023/12/27 06:01:57;;;;;;;0.50;0.50;;;0.80;99.90;;;;;;5052053;28;20602;-71
2023/12/27 06:04:22;;;;;;;0.40;0.40;;;0.90;99.90;;;;;;5054365;28;20045;-71
2023/12/27 06:06:49;;;;;;;0.75;0.75;;;0.90;99.90;;;;;;5059599;28;20190;-71
2023/12/27 06:09:18;;;;;;;0.52;0.52;;;0.90;99.90;;;;;;5053630;28;20051;-71
2023/12/27 06:11:45;;;;;;;0.73;0.73;;;0.90;99.90;;;;;;5051272;28;20052;-71
2023/12/27 06:14:11;;;;;;;0.60;0.60;;;0.90;99.90;;;;;;5053484;28;20072;-71
2023/12/27 06:16:37;;;;;;;0.73;0.73;;;1.00;99.90;;;;;;5054947;28;20060;-71
2023/12/27 06:19:03;;;;;;;0.60;0.60;;;1.00;99.90;;;;;;5052497;28;20155;-72
2023/12/27 06:21:29;;;;;;;0.70;0.70;;;1.10;99.90;;;;;;5061187;28;20406;-71
2023/12/27 06:23:55;;;;;;;0.85;0.85;;;1.20;99.90;;;;;;5062425;28;20060;-71
2023/12/27 06:26:22;;;;;;;0.60;0.60;;;1.20;99.90;;;;;;5059116;28;20147;-71
2023/12/27 06:28:47;;;;;;;0.73;0.73;;;1.30;99.90;;;;;;5057871;28;20052;-71
2023/12/27 06:31:13;;;;;;;0.70;0.70;;;1.30;99.90;;;;;;5053326;28;20169;-71
2023/12/27 06:33:39;;;;;;;0.85;0.85;;;1.30;99.90;;;;;;5054604;28;20033;-72
2023/12/27 06:36:06;;;;;;;1.45;1.35;;;1.30;99.90;;;;;;5048695;28;20521;-71
2023/12/27 06:38:32;;;;;;;1.42;1.30;;;1.40;99.90;;;;;;5053376;28;20045;-71
2023/12/27 06:40:58;;;;;;;0.93;0.93;;;1.40;99.90;;;;;;5063290;28;20094;-71
2023/12/27 06:43:23;;;;;;;0.60;0.60;;;1.50;99.90;;;;;;5048936;28;20036;-71
2023/12/27 06:45:49;;;;;;;1.10;1.05;;;1.50;99.90;;;;;;5061993;28;20112;-71
2023/12/27 06:48:15;;;;;;;1.48;1.30;;;1.50;99.90;;;;;;5047476;28;20123;-72
2023/12/27 06:50:42;;;;;;;0.85;0.85;;;1.50;99.90;;;;;;5061972;28;20083;-71
2023/12/27 06:53:08;;;;;;;0.82;0.82;;;1.50;99.90;;;;;;5060604;28;20155;-72
2023/12/27 06:55:33;;;;;;;0.80;0.80;;;1.60;99.90;;;;;;5067559;28;20120;-71
2023/12/27 06:57:59;;;;;;;0.85;0.85;;;1.50;99.90;;;;;;5054221;28;20666;-71
2023/12/27 07:00:28;;;;;;;0.90;0.90;;;1.50;99.90;;;;;;5054254;28;20037;-72
2023/12/27 07:02:54;;;;;;;0.68;0.68;;;1.50;99.90;;;;;;5057590;28;20559;-71
2023/12/27 07:05:20;;;;;;;0.80;0.80;;;1.60;99.90;;;;;;5049939;28;20053;-71
2023/12/27 07:07:46;;;;;;;0.93;0.90;;;1.60;99.90;;;;;;5048412;28;20057;-71
2023/12/27 07:10:12;;;;;;;0.77;0.77;;;1.60;99.90;;;;;;5049894;28;20056;-71
2023/12/27 07:12:38;;;;;;;2.17;1.15;;;1.60;99.90;;;;;;5051518;28;20039;-71
2023/12/27 07:15:05;;;;;;;0.68;0.68;;;1.70;99.90;;;;;;5054435;28;20097;-71
2023/12/27 07:17:30;;;;;;;2.00;1.30;;;1.70;99.90;;;;;;5049856;28;20052;-71
2023/12/27 07:19:56;;;;;;;0.85;0.85;;;1.70;99.90;;;;;;5059444;28;20048;-71
2023/12/27 07:22:22;;;;;;;1.58;1.48;;;1.70;99.90;;;;;;5062779;28;20052;-71
2023/12/27 07:24:48;;;;;;;1.48;1.38;;;1.80;99.90;;;;;;5051422;28;20049;-71
2023/12/27 07:27:13;;;;;;;1.10;1.08;;;1.80;99.90;;;;;;5053670;28;20052;-71
2023/12/27 07:29:40;;;;;;;1.25;1.25;;;1.80;99.90;;;;;;5056733;28;20044;-71
2023/12/27 07:32:05;;;;;;;1.40;1.30;;;1.80;99.90;;;;;;5052306;28;20536;-71
2023/12/27 07:34:32;;;;;;;1.77;1.67;;;1.80;99.90;;;;;;5049643;28;20052;-72
2023/12/27 07:36:59;;;;;;;0.88;0.88;;;1.90;99.90;;;;;;5062313;28;20048;-71
2023/12/27 07:39:25;;;;;;;2.35;2.05;;;1.90;99.90;;;;;;5047951;28;20489;-71
2023/12/27 07:41:51;;;;;;;1.70;1.60;;;1.90;99.90;;;;;;5056373;28;20072;-71
2023/12/27 07:44:16;;;;;;;1.40;1.30;;;1.90;99.90;;;;;;5050379;28;20550;-72
2023/12/27 07:46:46;;;;;;;0.73;0.73;;;1.90;99.90;;;;;;5052167;28;20890;-71
2023/12/27 07:49:11;;;;;;;0.80;0.80;;;1.90;99.90;;;;;;5055459;28;20071;-72
2023/12/27 07:51:37;;;;;;;0.70;0.70;;;1.90;99.90;;;;;;5051295;28;20044;-71
2023/12/27 07:54:03;;;;;;;1.02;0.77;;;2.00;99.90;;;;;;5051541;28;20540;-71
2023/12/27 07:56:29;;;;;;;1.15;1.15;;;1.90;99.90;;;;;;5053413;28;20048;-71
2023/12/27 07:58:54;;;;;;;2.42;1.00;;;2.00;99.90;;;;;;5050152;28;20048;-71
2023/12/27 08:01:21;;;;;;;1.30;1.20;;;2.00;99.90;;;;;;5053517;28;20033;-71
2023/12/27 08:03:46;;;;;;;1.95;1.15;;;2.00;99.90;;;;;;5049403;28;20789;-71
2023/12/27 08:06:12;;;;;;;1.98;1.38;;;2.00;99.90;;;;;;5051953;28;20052;-71
2023/12/27 08:08:38;;;;;;;1.35;1.20;;;2.10;99.90;;;;;;5052571;28;20052;-71
2023/12/27 08:11:04;;;;;;;0.60;0.60;;;2.10;99.90;;;;;;5050931;28;20127;-72
2023/12/27 08:13:31;;;;;;;0.60;0.60;;;2.10;99.90;;;;;;5053011;28;20048;-72
2023/12/27 08:15:57;;;;;;;0.93;0.93;;;2.20;99.90;;;;;;5048617;28;20048;-72
2023/12/27 08:18:23;;;;;;;1.50;1.40;;;2.10;99.90;;;;;;5056510;28;20387;-71
2023/12/27 08:20:48;;;;;;;1.58;1.05;;;2.20;99.90;;;;;;5061347;28;20052;-71
2023/12/27 08:23:16;;;;;;;0.70;0.70;;;2.30;99.90;;;;;;5055242;28;20379;-71
2023/12/27 08:25:45;;;;;;;0.80;0.80;;;2.30;99.90;;;;;;5055858;28;20124;-72
2023/12/27 08:28:11;;;;;;;0.50;0.50;;;2.30;99.90;;;;;;5051048;28;20299;-71
2023/12/27 08:30:37;;;;;;;0.70;0.70;;;2.40;99.90;;;;;;5066039;28;20040;-71
2023/12/27 08:33:07;;;;;;;0.63;0.63;;;2.50;99.90;;;;;;5054705;28;20053;-71
2023/12/27 08:35:34;;;;;;;0.52;0.52;;;2.50;99.90;;;;;;5055650;28;20036;-72
2023/12/27 08:37:59;;;;;;;0.50;0.50;;;2.60;99.90;;;;;;5048061;28;20379;-71
2023/12/27 08:40:25;;;;;;;0.93;0.93;;;2.60;99.90;;;;;;5047457;28;20051;-72
2023/12/27 08:42:51;;;;;;;1.35;1.25;;;2.70;99.90;;;;;;5047058;28;20442;-71
2023/12/27 08:45:16;;;;;;;1.02;1.02;;;2.70;99.90;;;;;;5052180;28;20072;-71
2023/12/27 08:47:43;;;;;;;0.95;0.95;;;2.80;99.90;;;;;;5051297;28;20044;-71
2023/12/27 08:50:10;;;;;;;1.10;0.95;;;2.80;99.90;;;;;;5050663;28;20498;-71
2023/12/27 08:52:37;;;;;;;0.95;0.95;;;2.80;99.90;;;;;;5052995;28;20048;-71
2023/12/27 08:55:05;;;;;;;2.05;1.17;;;2.90;99.90;;;;;;5054126;28;20402;-72
2023/12/27 08:57:31;;;;;;;1.33;1.17;;;2.90;99.90;;;;;;5054019;28;20584;-71
2023/12/27 08:59:57;;;;;;;0.60;0.60;;;3.00;99.90;;;;;;5049986;28;20037;-71
2023/12/27 09:02:23;;;;;;;1.25;1.15;;;3.00;99.90;;;;;;5060772;28;20090;-71
2023/12/27 09:04:49;;;;;;;1.45;1.35;;;3.00;99.90;;;;;;5057399;28;20045;-71
2023/12/27 09:07:15;;;;;;;1.95;1.23;;;3.10;99.90;;;;;;5052771;28;20469;-71
2023/12/27 09:09:41;;;;;;;0.93;0.93;;;3.10;99.90;;;;;;5054821;28;20059;-71
2023/12/27 09:12:06;;;;;;;2.60;2.40;;;3.20;99.90;;;;;;5036276;28;20131;-72
2023/12/27 09:14:32;;;;;;;3.28;2.75;;;3.20;99.90;;;;;;5053612;28;20093;-72
2023/12/27 09:16:57;;;;;;;0.70;0.70;;;3.30;99.90;;;;;;5055732;28;20060;-72
2023/12/27 09:19:23;;;;;;;2.42;1.92;;;3.30;99.90;;;;;;5055438;28;20055;-72
2023/12/27 09:21:49;;;;;;;1.80;1.70;;;3.30;99.90;;;;;;5049572;28;20702;-72
2023/12/27 09:24:15;;;;;;;17.13;2.65;;;3.40;99.90;;;;;;5048683;28;20048;-72
2023/12/27 09:26:40;;;;;;;1.60;1.50;;;3.40;99.90;;;;;;5057814;28;20799;-72
2023/12/27 09:29:09;;;;;;;2.72;1.92;;;3.50;99.90;;;;;;5059004;28;20041;-72
2023/12/27 09:31:35;;;;;;;1.30;1.30;;;3.50;99.90;;;;;;5054290;28;20079;-72
2023/12/27 09:34:00;;;;;;;3.80;1.98;;;3.50;99.90;;;;;;5062683;28;20048;-73
2023/12/27 09:36:26;;;;;;;1.92;1.83;;;3.60;99.90;;;;;;5068417;28;20536;-72
2023/12/27 09:38:52;;;;;;;1.50;1.40;;;3.60;99.90;;;;;;5061649;28;20084;-73
2023/12/27 09:41:18;;;;;;;3.60;2.70;;;3.70;99.90;;;;;;5061126;28;20120;-73
2023/12/27 09:43:46;;;;;;;1.70;1.60;;;3.70;99.90;;;;;;5051170;28;20049;-73
2023/12/27 09:46:14;;;;;;;2.92;2.67;;;3.70;99.90;;;;;;5055333;28;20045;-72
2023/12/27 09:48:41;;;;;;;1.70;1.60;;;3.80;99.90;;;;;;5063726;28;20052;-72
2023/12/27 09:51:07;;;;;;;4.65;4.18;;;3.80;99.90;;;;;;5055211;28;20689;-73
2023/12/27 09:53:33;;;;;;;2.90;2.67;;;3.90;99.90;;;;;;5055878;28;20116;-72
2023/12/27 09:56:00;;;;;;;4.30;2.72;;;3.90;99.90;;;;;;5055709;28;20048;-73
2023/12/27 09:58:30;;;;;;;2.80;2.50;;;4.00;99.90;;;;;;5053798;28;20052;-72
2023/12/27 10:00:59;;;;;;;2.58;2.13;;;4.00;99.90;;;;;;5057738;28;20107;-72
2023/12/27 10:03:33;;;;;;;15.98;2.97;;;4.10;99.90;;;;;;5041333;28;20546;-72
2023/12/27 10:06:13;;;;;;;8.23;2.97;;;4.10;99.90;;;;;;5063793;28;20131;-72
2023/12/27 10:08:40;;;;;;;3.28;2.83;;;4.20;99.90;;;;;;5054273;28;20135;-72
2023/12/27 10:11:08;;;;;;;1.77;1.73;;;4.20;99.90;;;;;;5057200;28;20045;-72
2023/12/27 10:13:41;;;;;;;5.60;3.10;;;4.20;99.90;;;;;;5059224;28;20509;-72
2023/12/27 10:16:07;;;;;;;1.45;1.35;;;4.30;99.90;;;;;;5063702;28;20524;-72
2023/12/27 10:18:33;;;;;;;4.45;2.15;;;4.30;99.90;;;;;;5058268;28;20498;-72
2023/12/27 10:20:59;;;;;;;4.68;4.20;;;4.30;99.90;;;;;;5057177;28;20052;-72
2023/12/27 10:23:24;;;;;;;3.45;2.72;;;4.40;99.90;;;;;;5042244;28;20127;-72
2023/12/27 10:25:51;;;;;;;2.80;2.60;;;4.40;99.90;;;;;;5065010;28;20189;-72
2023/12/27 10:28:22;;;;;;;2.03;1.92;;;4.40;99.90;;;;;;5053214;28;20053;-72
2023/12/27 10:30:47;;;;;;;4.38;4.00;;;4.50;99.90;;;;;;5060324;28;20049;-71
2023/12/27 10:33:13;;;;;;;4.72;4.32;;;4.50;99.90;;;;;;5058934;28;20049;-72
2023/12/27 10:35:39;;;;;;;5.82;2.80;;;4.50;99.90;;;;;;5058979;28;20045;-72
2023/12/27 10:38:06;;;;;;;4.55;1.95;;;4.50;99.90;;;;;;5058595;28;20051;-72
2023/12/27 10:40:33;;;;;;;2.08;1.77;;;4.60;99.90;;;;;;5056483;28;20052;-73
2023/12/27 10:42:59;;;;;;;1.58;1.48;;;4.60;99.90;;;;;;5060717;28;20036;-72
2023/12/27 10:45:25;;;;;;;2.35;1.88;;;4.60;99.90;;;;;;5059917;28;20040;-72
2023/12/27 10:48:18;;;;;;;6.00;4.05;;;4.70;99.90;;;;;;5068675;28;20075;-74
2023/12/27 10:50:44;;;;;;;9.30;3.50;;;4.70;99.90;;;;;;5054061;28;20085;-75
2023/12/27 10:53:18;;;;;;;2.17;2.08;;;4.80;99.90;;;;;;5054063;28;20167;-75
2023/12/27 10:55:47;;;;;;;2.13;2.03;;;4.70;99.90;;;;;;5055627;28;20040;-75
2023/12/27 10:58:16;;;;;;;;;;;4.70;99.90;;;;;;5057005;28;20128;-74
2023/12/27 11:00:42;;;;;;;3.10;2.70;;;4.70;99.90;;;;;;5063597;28;20393;-74
2023/12/27 11:03:09;;;;;;;3.08;2.03;;;4.80;99.90;;;;;;5057014;28;20041;-74
2023/12/27 11:05:37;;;;;;;4.50;3.40;;;4.80;99.90;;;;;;5063811;28;20425;-74
2023/12/27 11:08:04;;;;;;;2.90;2.03;;;4.80;99.90;;;;;;5056631;28;20125;-74
2023/12/27 11:10:34;;;;;;;5.30;3.60;;;4.80;99.90;;;;;;5055405;28;20421;-74
2023/12/27 11:13:01;;;;;;;1.58;1.52;;;4.80;99.90;;;;;;5048152;28;20053;-74
2023/12/27 11:15:29;;;;;;;2.75;2.47;;;4.80;99.90;;;;;;5051833;28;20051;-74
2023/12/27 11:17:56;;;;;;;3.03;2.65;;;4.80;99.90;;;;;;5053142;28;20073;-74
2023/12/27 11:20:23;;;;;;;2.63;2.10;;;4.80;99.90;;;;;;5057483;28;20041;-74
2023/12/27 11:22:50;;;;;;;3.13;2.35;;;4.90;99.90;;;;;;5054472;28;20116;-74
2023/12/27 11:25:16;;;;;;;1.63;1.52;;;4.90;99.90;;;;;;5065038;28;20044;-74
2023/12/27 11:27:42;;;;;;;1.10;1.10;;;4.90;99.90;;;;;;5050285;28;20049;-74
2023/12/27 11:30:12;;;;;;;2.00;1.90;;;4.90;99.90;;;;;;5056576;28;20087;-74
2023/12/27 11:32:41;;;;;;;1.92;1.80;;;4.90;99.90;;;;;;5058821;28;20040;-74
2023/12/27 11:35:09;;;;;;;1.15;1.15;;;5.00;99.90;;;;;;5048508;28;20044;-74
2023/12/27 11:37:34;;;;;;;4.05;2.03;;;4.90;99.90;;;;;;5064584;28;20052;-74
2023/12/27 11:40:00;;;;;;;1.33;1.33;;;5.00;99.90;;;;;;5056101;28;20089;-74
2023/12/27 11:42:26;;;;;;;5.05;1.70;;;5.00;99.90;;;;;;5055169;28;20044;-75
2023/12/27 11:44:54;;;;;;;1.88;1.77;;;5.00;99.90;;;;;;5052454;28;20048;-75
2023/12/27 11:47:20;;;;;;;3.20;2.83;;;5.00;99.90;;;;;;5035363;28;20044;-75
2023/12/27 11:50:09;;;;;;;0.98;0.98;;;5.00;99.90;;;;;;5052280;28;20070;-77
2023/12/27 11:52:46;;;;;;;1.67;1.52;;;5.10;99.90;;;;;;5057492;28;20501;-77
2023/12/27 11:55:23;;;;;;;2.30;1.43;;;5.10;99.90;;;;;;5052792;28;20037;-78
2023/12/27 11:57:58;;;;;;;1.30;1.20;;;5.10;99.90;;;;;;5050887;28;20752;-77
2023/12/27 12:00:28;;;;;;;7.72;2.75;;;5.10;99.90;;;;;;5054157;28;20498;-77
2023/12/27 12:03:01;;;;;;;1.25;1.15;;;5.10;99.90;;;;;;5052748;28;20464;-77
2023/12/27 12:05:41;;;;;;;4.50;1.33;;;5.10;99.90;;;;;;5053294;28;20433;-77
2023/12/27 12:08:26;;;;;;;1.35;1.00;;;5.10;99.90;;;;;;5047367;28;20406;-77
2023/12/27 12:11:06;;;;;;;1.48;1.38;;;5.20;99.90;;;;;;5047776;28;20167;-78
2023/12/27 12:13:33;;;;;;;2.10;2.00;;;5.20;99.90;;;;;;5051182;28;20055;-77
2023/12/27 12:15:59;;;;;;;1.80;1.70;;;5.20;99.90;;;;;;5047840;28;20048;-78
2023/12/27 12:18:26;;;;;;;2.13;2.03;;;5.20;99.90;;;;;;5059161;28;20044;-77
2023/12/27 12:20:52;;;;;;;2.65;1.15;;;5.20;99.90;;;;;;5050713;28;20049;-77
2023/12/27 12:23:18;;;;;;;8.85;4.03;;;5.20;99.90;;;;;;5059385;28;20075;-78
2023/12/27 12:25:47;;;;;;;1.77;1.67;;;5.20;99.90;;;;;;5062150;28;20537;-77
2023/12/27 12:28:13;;;;;;;2.58;2.28;;;5.30;99.90;;;;;;5052840;28;20053;-77
2023/12/27 12:30:45;;;;;;;1.60;1.45;;;5.30;99.90;;;;;;5063210;28;20756;-77
2023/12/27 12:33:14;;;;;;;0.85;0.85;;;5.30;99.90;;;;;;5063147;28;20132;-77
2023/12/27 12:35:40;;;;;;;10.43;2.90;;;5.30;99.90;;;;;;5048139;28;20509;-77
2023/12/27 12:38:06;;;;;;;5.80;2.53;;;5.30;99.90;;;;;;5053141;28;20048;-78
2023/12/27 12:40:32;;;;;;;4.53;3.10;;;5.30;99.90;;;;;;5055259;28;20057;-77
2023/12/27 12:42:58;;;;;;;2.88;2.63;;;5.30;99.90;;;;;;5052396;28;20049;-78
2023/12/27 12:45:24;;;;;;;3.90;1.63;;;5.40;99.90;;;;;;5054969;28;20056;-78
2023/12/27 12:47:50;;;;;;;1.27;1.23;;;5.40;99.90;;;;;;5051967;28;20044;-78
2023/12/27 12:50:19;;;;;;;5.82;3.15;;;5.40;99.90;;;;;;5058340;28;20167;-79
2023/12/27 12:52:45;;;;;;;2.28;2.10;;;5.40;99.90;;;;;;5053565;28;20805;-78
2023/12/27 12:55:11;;;;;;;2.63;1.52;;;5.40;99.90;;;;;;5055222;28;20052;-79